• Join FlightAware (Why Join?)
  • Login
  • US Flag 
08:19PM EDT


 

Airport Tracker/Info


-or-


 

Live Flight TrackerFlight Track Log ✈ AWE1940 ✈ 17-Jun-2013 ✈ KCLT - KALB

Flight Track Log - Related Links

Times and Time Zones

All times are in EDT time to prevent confusion due to time zone crossing. See the AWE1940 flight status page for this flight to view local times or setup timezone preferences in your user account.

Time Position Orientation Groundspeed Altitude Reporting Facility
EDT Latitude Longitude Course Direction KTS MPH feet Rate Location/Type
10:50PM 35.1975 -80.9533 52° Northeast 151 174 1,800  Level Atlanta Center
10:51PM 35.1372 -80.9606 186° South 218 251 4,700 2,520 Climbing Atlanta Center
10:52PM 35.1267 -81.0372 260° West 264 304 7,200 2,100 Climbing Atlanta Center
10:52PM 35.1233 -81.0753 264° West 310 357 8,000 780 Climbing Atlanta Center
10:53PM 35.1300 -81.1767 275° West 301 346 8,400 1,680 Climbing Atlanta Center
10:54PM 35.2504 -81.2167 North  Level FlightAware Approximate
10:54PM 35.2056 -81.2019 345° North 236 272 11,400  Level Atlanta Center
10:55PM 35.3199 -81.1094 52° Northeast  Level FlightAware Approximate
10:55PM 35.2942 -81.1481 26° Northeast 283 326 13,700  Level Atlanta Center
10:56PM 35.3886 -81.0886 27° Northeast 346 398 14,000 1,080 Climbing Atlanta Center
10:57PM 35.4811 -81.0294 28° Northeast 360 414 15,900 2,280 Climbing Atlanta Center
10:58PM 35.5775 -80.9669 28° Northeast 370 426 18,600 1,800 Climbing Atlanta Center
10:59PM 35.6844 -80.9042 25° Northeast 401 461 19,600 1,500 Climbing Atlanta Center
11:00PM 35.8089 -80.8739 11° North 426 490 21,600 1,920 Climbing Atlanta Center
11:01PM 35.9400 -80.8583 North 458 527 23,500 1,800 Climbing Atlanta Center
11:02PM 36.0708 -80.8431 North 464 534 25,200 1,620 Climbing Atlanta Center
11:03PM 36.2081 -80.8247 North 481 554 26,800 2,100 Climbing Atlanta Center
11:04PM 36.3389 -80.8067 North 481 554 29,400 2,100 Climbing Atlanta Center
11:05PM 36.4700 -80.7911 North 476 548 31,000 1,800 Climbing Atlanta Center
11:06PM 36.5947 -80.7731 North 466 536 33,000 960 Climbing Atlanta Center
11:07PM 36.7161 -80.7214 19° North 460 529 33,000  Level Atlanta Center
11:09PM 36.9214 -80.6011 25° Northeast 471 542 33,000  Level Washington Center
11:10PM 37.0453 -80.5283 25° Northeast 476 548 33,000  Level Washington Center
11:11PM 37.1675 -80.4503 27° Northeast 476 548 33,000  Level Washington Center
11:12PM 37.2764 -80.3842 26° Northeast 485 558 33,000  Level Washington Center
11:13PM 37.3961 -80.3106 26° Northeast 480 552 33,000  Level Washington Center
11:14PM 37.5158 -80.2367 26° Northeast 480 552 33,000  Level Washington Center
11:15PM 37.6336 -80.1628 26° Northeast 480 552 33,000  Level Washington Center
11:16PM 37.7639 -80.0839 26° Northeast 480 552 33,000 180 Level Washington Center
11:17PM 37.8814 -80.0094 27° Northeast 475 547 33,400 480 Climbing Washington Center
11:18PM 37.9967 -79.9369 26° Northeast 469 540 34,000 300 Climbing Washington Center
11:19PM 38.1139 -79.8619 27° Northeast 469 540 34,100 480 Climbing Washington Center
11:20PM 38.2314 -79.7842 27° Northeast 463 533 35,000 420 Climbing Washington Center
11:21PM 38.3378 -79.7214 25° Northeast 470 541 35,000  Level Washington Center
11:22PM 38.4572 -79.6431 27° Northeast 470 541 35,000  Level Washington Center
11:23PM 38.5744 -79.5672 27° Northeast 470 541 35,000  Level Washington Center
11:24PM 38.6917 -79.4911 27° Northeast 465 535 35,000  Level Washington Center
11:25PM 38.8175 -79.4044 28° Northeast 465 535 35,000  Level Washington Center
11:26PM 38.9347 -79.3278 27° Northeast 465 535 35,000  Level Washington Center
11:27PM 39.0536 -79.2511 27° Northeast 470 541 35,000  Level Washington Center
11:30PM 39.3503 -79.0558 27° Northeast 480 552 35,000  Level Cleveland Center
11:31PM 39.4681 -78.9778 27° Northeast 470 541 35,000  Level Cleveland Center
11:32PM 39.5753 -78.9081 27° Northeast 470 541 35,000  Level Cleveland Center
11:33PM 39.6972 -78.8294 26° Northeast 475 547 35,000  Level Cleveland Center
11:34PM 39.8083 -78.7319 34° Northeast 480 552 35,000  Level Cleveland Center
11:35PM 39.9017 -78.5939 49° Northeast 480 552 35,000  Level Cleveland Center
11:39PM 40.2822 -77.9953 50° Northeast 529 609 35,000  Level New York Center
11:40PM 40.3747 -77.8469 51° Northeast 535 616 35,000  Level New York Center
11:41PM 40.4667 -77.7008 50° Northeast 530 610 35,000 -60 Level New York Center
11:42PM 40.5583 -77.5569 50° Northeast 525 604 34,900 -600 Descending New York Center
11:43PM 40.6481 -77.4069 52° Northeast 519 597 33,900 -1,140 Descending New York Center
11:44PM 40.7353 -77.2647 51° Northeast 507 583 32,700 -1,620 Descending New York Center
11:45PM 40.8244 -77.1225 50° Northeast 507 583 30,700 -1,440 Descending New York Center
11:46PM 40.9156 -76.9744 51° Northeast 507 583 29,800 -900 Descending New York Center
11:47PM 41.0067 -76.8231 51° Northeast 513 590 29,000 -420 Descending New York Center
11:48PM 41.0997 -76.6717 51° Northeast 518 596 29,000  Level New York Center
11:49PM 41.1906 -76.5197 52° Northeast 518 596 29,000  Level New York Center
11:50PM 41.2811 -76.3672 52° Northeast 518 596 29,000  Level New York Center
11:51PM 41.3761 -76.2092 51° Northeast 533 613 29,000  Level New York Center
11:52PM 41.4575 -76.0664 53° Northeast 540 621 29,000 -60 Level New York Center
11:53PM 41.5572 -75.9272 46° Northeast 529 609 28,900 -600 Descending New York Center
11:54PM 41.6778 -75.8367 29° Northeast 506 582 27,900 -1,020 Descending New York Center
11:56PM 41.9425 -75.6389 29° Northeast 508 585 25,900 -960 Descending Boston Center
11:57PM 42.0597 -75.5497 29° Northeast 491 565 25,000 -960 Descending Boston Center
11:58PM 42.1789 -75.4547 31° Northeast 491 565 24,000 -1,080 Descending Boston Center
11:59PM 42.2603 -75.2989 55° Northeast 491 565 22,900 -1,320 Descending Boston Center
12:00AM 42.3144 -75.1217 67° East 496 571 21,400 -2,160 Descending Boston Center
12:01AM 42.3703 -74.9608 65° Northeast 481 554 18,600 -3,300 Descending Boston Center
12:02AM 42.4217 -74.8028 66° East 464 534 14,900 -3,300 Descending Boston Center
12:03AM 42.4706 -74.6497 67° East 441 507 12,100 -1,980 Descending Boston Center
12:04AM 42.5083 -74.5300 67° East 402 463 11,000 -1,440 Descending Boston Center
12:05AM 42.5422 -74.3817 73° East 302 348 9,100 -1,800 Descending Boston Center
12:06AM 42.5581 -74.2975 76° East 310 357 7,500 -2,040 Descending Boston Center
12:07AM 42.5808 -74.1769 76° East 299 344 5,300 -1,440 Descending Boston Center
12:08AM 42.6011 -74.0872 73° East 283 326 4,700 -720 Descending Boston Center
12:09AM 42.6189 -74.0031 74° East 260 299 3,900 -600 Descending Boston Center
12:10AM 42.6347 -73.9217 75° East 236 272 3,500 -780 Descending Boston Center
12:11AM 42.6503 -73.8261 77° East 183 211 2,200 -960 Descending Boston Center
12:12AM 42.6778 -73.8042 30° Northeast 126 145 1,400 -720 Descending Boston Center
12:13AM 42.7153 -73.8050 359° North 124 143 800 -600 Descending Boston Center